Time;durP1;ratioP1;P1;durP2;ratioP2;P2;SDS_P1;SDS_P2;PMS_P1;PMS_P2;Temp;Humidity;BMP_temperature;BMP_pressure;BME280_temperature;BME280_humidity;BME280_pressure;Samples;Min_cycle;Max_cycle;Signal;HPM_P1;HPM_P2
2021/07/02 00:03:00;;;;;;;4.63;4.03;;;19.90;81.20;;;;;;10452539;28;20201;-28
2021/07/02 00:08:26;;;;;;;5.10;3.77;;;19.90;81.20;;;;;;10453719;28;20220;-27
2021/07/02 00:13:48;;;;;;;3.80;3.50;;;19.90;81.10;;;;;;10453951;28;20193;-27
2021/07/02 00:19:10;;;;;;;4.20;3.80;;;19.90;81.00;;;;;;10453608;28;20186;-27
2021/07/02 00:24:33;;;;;;;5.10;3.73;;;19.90;81.10;;;;;;10452766;28;20217;-27
2021/07/02 00:29:55;;;;;;;3.70;3.40;;;19.90;80.90;;;;;;10459211;28;20197;-27
2021/07/02 00:35:18;;;;;;;3.77;3.47;;;20.00;81.00;;;;;;10486537;28;20216;-28
2021/07/02 00:40:41;;;;;;;4.30;3.90;;;19.90;80.80;;;;;;10493691;28;20196;-27
2021/07/02 00:46:03;;;;;;;5.80;3.80;;;19.90;80.90;;;;;;10490359;28;20216;-30
2021/07/02 00:51:29;;;;;;;6.37;3.63;;;19.90;80.70;;;;;;10494008;28;20210;-30
2021/07/02 00:56:53;;;;;;;4.53;4.13;;;19.90;80.70;;;;;;10486750;28;20836;-28
2021/07/02 01:02:16;;;;;;;4.03;3.63;;;19.90;81.00;;;;;;10451025;28;20192;-28
2021/07/02 01:07:40;;;;;;;5.13;3.70;;;19.90;80.70;;;;;;10452097;28;20299;-26
2021/07/02 01:13:05;;;;;;;4.10;3.80;;;19.90;80.90;;;;;;10451480;28;20575;-27
2021/07/02 01:18:28;;;;;;;4.37;4.00;;;19.90;80.70;;;;;;10452020;28;20565;-29
2021/07/02 01:23:51;;;;;;;4.10;3.70;;;19.90;80.70;;;;;;10486672;28;20199;-30
2021/07/02 01:29:13;;;;;;;4.40;4.00;;;19.90;80.60;;;;;;10479223;28;20208;-29
2021/07/02 01:34:35;;;;;;;4.80;4.03;;;19.90;81.30;;;;;;10451265;28;20584;-29
2021/07/02 01:39:59;;;;;;;4.60;4.10;;;19.90;80.70;;;;;;10451552;28;20205;-26
2021/07/02 01:45:21;;;;;;;5.07;4.57;;;19.90;80.90;;;;;;10451561;28;20224;-30
2021/07/02 01:50:43;;;;;;;5.03;4.50;;;19.90;80.70;;;;;;10468861;28;20181;-31
2021/07/02 01:56:07;;;;;;;5.13;4.63;;;19.90;80.90;;;;;;10513005;28;20228;-29
2021/07/02 02:01:29;;;;;;;4.83;4.30;;;19.90;80.80;;;;;;10505506;28;20272;-35
2021/07/02 02:06:51;;;;;;;5.60;5.00;;;19.90;80.70;;;;;;10457769;28;20244;-26
2021/07/02 02:12:15;;;;;;;5.20;4.60;;;19.90;80.90;;;;;;10457958;28;20190;-27
2021/07/02 02:17:37;;;;;;;4.73;4.27;;;19.90;80.80;;;;;;10456628;28;20929;-30
2021/07/02 02:22:59;;;;;;;5.17;4.67;;;19.90;80.70;;;;;;10486456;28;20200;-25
2021/07/02 02:28:23;;;;;;;5.20;4.70;;;19.90;80.80;;;;;;10496162;28;20220;-27
2021/07/02 02:33:45;;;;;;;4.90;4.40;;;19.90;80.70;;;;;;10468470;28;20197;-27
2021/07/02 02:39:07;;;;;;;6.87;5.00;;;19.90;80.60;;;;;;10458191;28;20561;-28
2021/07/02 02:44:31;;;;;;;6.07;5.20;;;19.90;80.50;;;;;;10457094;28;20727;-27
2021/07/02 02:49:53;;;;;;;6.03;5.17;;;19.90;80.60;;;;;;10456180;28;20205;-27
2021/07/02 02:55:15;;;;;;;7.07;4.77;;;19.90;80.40;;;;;;10458502;28;20209;-26
2021/07/02 03:00:38;;;;;;;6.03;5.30;;;19.90;80.50;;;;;;10456495;28;20772;-27
2021/07/02 03:06:00;;;;;;;5.87;4.57;;;19.90;80.70;;;;;;10454997;28;20229;-26
2021/07/02 03:11:22;;;;;;;6.13;5.53;;;19.90;80.70;;;;;;10455194;28;20200;-30
2021/07/02 03:16:46;;;;;;;5.93;5.33;;;19.90;80.60;;;;;;10467569;28;20217;-26
2021/07/02 03:22:08;;;;;;;6.10;5.20;;;19.90;80.70;;;;;;10475995;28;20302;-27
2021/07/02 03:27:30;;;;;;;5.83;5.13;;;19.80;80.70;;;;;;10491746;28;20228;-26
2021/07/02 03:32:54;;;;;;;6.53;5.77;;;19.90;80.60;;;;;;10471084;28;20196;-27
2021/07/02 03:38:16;;;;;;;6.10;5.53;;;19.80;80.60;;;;;;10467388;28;20223;-27
2021/07/02 03:43:38;;;;;;;6.83;5.43;;;19.80;80.60;;;;;;10454267;28;20205;-26
2021/07/02 03:49:01;;;;;;;6.23;5.63;;;19.80;80.60;;;;;;10453468;28;20225;-28
2021/07/02 03:54:23;;;;;;;6.53;5.47;;;19.80;80.50;;;;;;10452374;28;20243;-29
2021/07/02 03:59:47;;;;;;;6.53;5.13;;;19.80;80.50;;;;;;10453408;28;20193;-27
2021/07/02 04:05:12;;;;;;;7.03;5.90;;;19.90;80.60;;;;;;10489962;28;20561;-28
2021/07/02 04:10:35;;;;;;;7.07;6.13;;;19.80;80.50;;;;;;10489999;28;20660;-29
2021/07/02 04:15:57;;;;;;;5.73;5.13;;;19.80;80.50;;;;;;10460070;28;20224;-26
2021/07/02 04:21:20;;;;;;;6.70;6.03;;;19.80;80.50;;;;;;10467259;28;20208;-28
2021/07/02 04:26:43;;;;;;;6.53;5.90;;;19.80;80.50;;;;;;10489902;28;20213;-28
2021/07/02 04:32:06;;;;;;;6.60;5.67;;;19.80;80.30;;;;;;10479231;28;20216;-27
2021/07/02 04:37:29;;;;;;;6.77;5.50;;;19.90;80.30;;;;;;10460449;28;20213;-29
2021/07/02 04:42:51;;;;;;;6.33;5.73;;;19.90;80.40;;;;;;10459398;28;20196;-27
2021/07/02 04:48:13;;;;;;;6.70;5.73;;;19.80;80.50;;;;;;10463280;28;20220;-26
2021/07/02 04:53:37;;;;;;;6.17;5.57;;;19.90;80.30;;;;;;10455645;28;20200;-28
2021/07/02 04:59:00;;;;;;;6.57;5.87;;;19.90;80.50;;;;;;10452049;28;20694;-26
2021/07/02 05:04:22;;;;;;;6.50;5.87;;;19.80;80.50;;;;;;10468634;28;20224;-26
2021/07/02 05:09:46;;;;;;;6.80;6.10;;;19.80;80.50;;;;;;10491717;28;20216;-26
2021/07/02 05:15:10;;;;;;;6.20;5.60;;;19.90;80.70;;;;;;10484140;28;20212;-26
2021/07/02 05:20:32;;;;;;;7.03;5.87;;;19.80;80.70;;;;;;10484189;28;20200;-26
2021/07/02 05:25:56;;;;;;;6.47;5.87;;;19.90;80.70;;;;;;10455712;28;20217;-26
2021/07/02 05:31:18;;;;;;;7.27;6.40;;;19.90;80.70;;;;;;10479473;28;20668;-27
2021/07/02 05:36:40;;;;;;;7.70;6.27;;;19.90;80.70;;;;;;10499795;28;20714;-28
2021/07/02 05:42:04;;;;;;;7.27;6.27;;;19.80;80.70;;;;;;10499444;28;20199;-30
2021/07/02 05:47:26;;;;;;;19.10;12.10;;;19.90;80.60;;;;;;10487100;28;20221;-32
2021/07/02 05:52:51;;;;;;;25.23;16.20;;;19.80;80.50;;;;;;10465856;28;20215;-27
2021/07/02 05:58:14;;;;;;;25.50;16.57;;;19.50;82.50;;;;;;10491881;28;20228;-30
2021/07/02 06:03:36;;;;;;;48.10;22.87;;;19.50;82.70;;;;;;10482941;28;20200;-28
2021/07/02 06:08:59;;;;;;;38.70;19.40;;;19.40;83.40;;;;;;10496221;28;20220;-28
2021/07/02 06:14:22;;;;;;;31.77;17.87;;;19.60;82.30;;;;;;10466635;28;20227;-28
2021/07/02 06:19:44;;;;;;;28.17;16.30;;;19.50;83.30;;;;;;10459836;28;20256;-30
2021/07/02 06:25:09;;;;;;;35.00;16.07;;;19.60;82.80;;;;;;10480193;28;20217;-28
2021/07/02 06:30:33;;;;;;;27.67;15.67;;;19.70;82.20;;;;;;10485852;28;20196;-29
2021/07/02 06:35:55;;;;;;;25.17;13.93;;;19.70;82.90;;;;;;10455677;28;20708;-26
2021/07/02 06:41:17;;;;;;;24.77;13.93;;;19.70;82.00;;;;;;10456443;28;20679;-27
2021/07/02 06:46:40;;;;;;;19.57;12.63;;;19.70;81.90;;;;;;10455632;28;20249;-29
2021/07/02 06:52:03;;;;;;;24.00;13.53;;;19.80;81.10;;;;;;10455908;28;20193;-30
2021/07/02 06:57:25;;;;;;;21.27;13.97;;;19.70;81.50;;;;;;10454940;28;20220;-29
2021/07/02 07:02:49;;;;;;;19.83;12.87;;;19.70;81.80;;;;;;10456101;28;20189;-26
2021/07/02 07:08:11;;;;;;;16.93;11.63;;;19.70;82.20;;;;;;10495473;28;20217;-27
2021/07/02 07:13:33;;;;;;;19.23;11.43;;;19.80;81.80;;;;;;10477155;28;20205;-26
2021/07/02 07:18:57;;;;;;;18.23;10.50;;;19.80;80.90;;;;;;10455026;28;20197;-26
2021/07/02 07:24:19;;;;;;;16.60;11.20;;;19.90;81.40;;;;;;10493695;28;20726;-27
2021/07/02 07:29:41;;;;;;;13.00;10.30;;;19.90;80.70;;;;;;10489261;28;20695;-29
2021/07/02 07:35:15;;;;;;;13.43;9.57;;;19.90;80.70;;;;;;10470093;28;20224;-32
2021/07/02 07:40:37;;;;;;;16.13;10.10;;;20.00;80.30;;;;;;10455380;28;20193;-28
2021/07/02 07:45:59;;;;;;;19.27;10.30;;;20.00;80.50;;;;;;10460931;28;20228;-24
2021/07/02 07:51:33;;;;;;;22.13;11.03;;;20.00;80.10;;;;;;10495873;28;20189;-28
2021/07/02 07:56:55;;;;;;;18.80;11.13;;;19.90;80.80;;;;;;10494324;28;20312;-29
2021/07/02 08:02:17;;;;;;;18.10;10.87;;;19.90;80.40;;;;;;10455770;28;20212;-28
2021/07/02 08:07:42;;;;;;;14.20;9.70;;;20.00;80.50;;;;;;10451962;28;20225;-29
2021/07/02 08:13:05;;;;;;;15.80;9.70;;;20.10;80.50;;;;;;10462317;28;20189;-27
2021/07/02 08:18:27;;;;;;;15.33;9.77;;;20.10;80.60;;;;;;10458503;28;20223;-28
2021/07/02 08:23:51;;;;;;;13.30;9.23;;;20.10;81.10;;;;;;10492650;28;20193;-27
2021/07/02 08:29:26;;;;;;;16.23;9.27;;;20.20;80.50;;;;;;10494554;28;20219;-28
2021/07/02 08:34:48;;;;;;;13.93;9.03;;;20.20;80.50;;;;;;10472598;28;20213;-27
2021/07/02 08:40:13;;;;;;;12.70;8.20;;;20.20;80.50;;;;;;10491935;28;20185;-27
2021/07/02 08:45:35;;;;;;;15.03;9.63;;;20.10;80.10;;;;;;10454637;28;20224;-27
2021/07/02 08:50:57;;;;;;;13.23;8.60;;;20.20;79.00;;;;;;10481022;28;20193;-26
2021/07/02 08:56:21;;;;;;;10.80;8.23;;;20.20;78.70;;;;;;10451492;28;20723;-26
2021/07/02 09:01:44;;;;;;;14.40;8.93;;;20.10;79.20;;;;;;10451744;28;20207;-28
2021/07/02 09:07:08;;;;;;;12.10;9.07;;;20.20;80.00;;;;;;10490775;22;20234;-24
2021/07/02 09:12:35;;;;;;;14.60;8.97;;;20.20;80.00;;;;;;10457044;28;20204;-24
2021/07/02 09:17:58;;;;;;;11.17;8.37;;;20.20;78.80;;;;;;10464131;28;20691;-25
2021/07/02 09:23:20;;;;;;;14.87;8.87;;;20.20;78.60;;;;;;10452669;28;20668;-24
2021/07/02 09:28:44;;;;;;;15.33;9.10;;;20.30;79.50;;;;;;10468625;28;20726;-25
2021/07/02 09:34:06;;;;;;;16.27;9.43;;;20.20;79.60;;;;;;10463607;28;20196;-25
2021/07/02 09:39:29;;;;;;;12.70;8.80;;;20.20;79.70;;;;;;10467434;28;20224;-24
2021/07/02 09:45:10;;;;;;;12.57;8.20;;;20.20;79.60;;;;;;10491835;28;20197;-24
2021/07/02 09:50:33;;;;;;;12.53;8.53;;;20.30;78.30;;;;;;10451229;28;20221;-25
2021/07/02 09:55:56;;;;;;;23.60;8.67;;;20.20;79.60;;;;;;10484961;28;20212;-25
2021/07/02 10:01:26;;;;;;;16.60;7.33;;;20.10;79.20;;;;;;10456090;28;20761;-24
2021/07/02 10:06:48;;;;;;;11.90;8.40;;;20.10;79.00;;;;;;10472690;28;20400;-23
2021/07/02 10:12:10;;;;;;;12.53;7.20;;;20.10;79.00;;;;;;10484754;28;20193;-26
2021/07/02 10:17:34;;;;;;;10.63;7.33;;;20.10;79.20;;;;;;10468286;28;20320;-23
2021/07/02 10:22:59;;;;;;;10.97;7.17;;;20.10;79.30;;;;;;10478948;28;20578;-25
2021/07/02 10:28:23;;;;;;;9.13;7.40;;;20.00;79.30;;;;;;10456465;28;20221;-24
2021/07/02 10:33:48;;;;;;;13.00;7.07;;;20.10;79.50;;;;;;10458913;28;20656;-25
2021/07/02 10:39:29;;;;;;;10.50;7.00;;;20.10;79.30;;;;;;10457315;28;20560;-25
2021/07/02 10:45:07;;;;;;;10.90;6.87;;;20.10;79.20;;;;;;10485067;28;20223;-25
2021/07/02 10:50:38;;;;;;;10.77;7.57;;;20.10;78.80;;;;;;10491429;28;20213;-24
2021/07/02 10:56:26;;;;;;;12.03;8.10;;;20.10;79.00;;;;;;10497635;28;20208;-27
2021/07/02 11:02:16;;;;;;;15.50;9.30;;;20.10;78.80;;;;;;10456249;28;20193;-26
2021/07/02 11:07:41;;;;;;;35.27;14.30;;;20.00;78.70;;;;;;10480916;28;20721;-25
2021/07/02 11:13:06;;;;;;;44.33;20.43;;;20.10;79.20;;;;;;10467099;28;20197;-23
2021/07/02 11:18:40;;;;;;;34.70;16.33;;;20.10;78.00;;;;;;10415783;28;20217;-25
2021/07/02 11:24:03;;;;;;;35.93;15.50;;;20.20;77.30;;;;;;10439880;28;20200;-24
2021/07/02 11:29:37;;;;;;;28.40;13.87;;;20.20;78.50;;;;;;10453842;28;20225;-25
2021/07/02 11:35:16;;;;;;;24.63;12.87;;;20.20;79.20;;;;;;10452937;28;20194;-24
2021/07/02 11:40:41;;;;;;;19.17;9.73;;;20.10;78.20;;;;;;10453732;28;20197;-24
2021/07/02 11:46:05;;;;;;;17.33;9.83;;;20.10;76.60;;;;;;10454755;28;20221;-24
2021/07/02 11:51:29;;;;;;;14.30;7.70;;;20.20;76.70;;;;;;10444817;28;20197;-25
2021/07/02 11:56:53;;;;;;;16.87;8.40;;;20.20;77.00;;;;;;10437084;28;20225;-25
2021/07/02 12:02:16;;;;;;;12.10;7.23;;;20.10;78.10;;;;;;10450902;28;20189;-25
2021/07/02 12:07:47;;;;;;;14.73;7.53;;;20.10;78.70;;;;;;10471289;28;20216;-25
2021/07/02 12:13:11;;;;;;;9.13;6.70;;;20.20;78.80;;;;;;10453832;28;20596;-23
2021/07/02 12:18:34;;;;;;;10.80;7.07;;;20.20;79.20;;;;;;10452247;28;20220;-23
2021/07/02 12:23:59;;;;;;;9.53;6.67;;;20.10;78.50;;;;;;10432815;28;20560;-23
2021/07/02 12:29:24;;;;;;;7.77;6.07;;;20.10;78.20;;;;;;10411445;28;20221;-28
2021/07/02 12:34:48;;;;;;;9.67;6.50;;;20.10;78.50;;;;;;10446411;28;20200;-24
2021/07/02 12:40:13;;;;;;;9.50;6.57;;;20.10;78.30;;;;;;10445215;28;20213;-26
2021/07/02 12:45:37;;;;;;;8.67;6.37;;;20.10;78.20;;;;;;10476416;28;20228;-24
2021/07/02 12:50:59;;;;;;;10.47;6.37;;;20.10;78.20;;;;;;10451820;28;20232;-24
2021/07/02 12:56:21;;;;;;;8.97;6.40;;;20.10;77.80;;;;;;10430678;28;20697;-24
2021/07/02 13:01:48;;;;;;;12.77;6.47;;;20.00;77.80;;;;;;10409485;28;20201;-24
2021/07/02 13:07:11;;;;;;;9.00;5.77;;;20.10;78.10;;;;;;10471291;28;20723;-23
2021/07/02 13:12:33;;;;;;;9.53;5.53;;;20.00;78.10;;;;;;10468657;28;20198;-24
2021/07/02 13:17:57;;;;;;;13.57;6.67;;;20.10;78.20;;;;;;10411423;28;20209;-26
2021/07/02 13:23:21;;;;;;;7.10;5.60;;;20.00;78.50;;;;;;10437800;28;20248;-24
2021/07/02 13:28:45;;;;;;;7.27;5.60;;;20.10;78.30;;;;;;10445961;28;20221;-25
2021/07/02 13:34:13;;;;;;;6.70;5.47;;;20.10;78.20;;;;;;10474888;28;20694;-24
2021/07/02 13:39:39;;;;;;;6.13;5.23;;;20.00;78.00;;;;;;10492304;28;20213;-26
2021/07/02 13:45:05;;;;;;;6.03;5.43;;;20.00;78.30;;;;;;10493237;28;20257;-25
2021/07/02 13:50:28;;;;;;;6.97;6.07;;;20.00;78.30;;;;;;10500765;28;20698;-24
2021/07/02 13:55:53;;;;;;;7.87;5.80;;;20.00;78.00;;;;;;10452757;28;20221;-25
2021/07/02 14:01:15;;;;;;;6.80;5.97;;;20.00;77.90;;;;;;10417611;28;20569;-25
2021/07/02 14:06:40;;;;;;;6.17;5.57;;;20.10;77.80;;;;;;10467268;28;20224;-25
2021/07/02 14:12:02;;;;;;;8.90;5.67;;;20.00;78.10;;;;;;10481876;28;20228;-25
2021/07/02 14:17:24;;;;;;;7.20;5.40;;;20.00;78.20;;;;;;10417265;28;20592;-25
2021/07/02 14:22:48;;;;;;;5.87;5.03;;;20.10;78.10;;;;;;10419662;28;20683;-25
2021/07/02 14:28:10;;;;;;;6.97;5.23;;;20.00;78.50;;;;;;10416333;28;20222;-25
2021/07/02 14:33:33;;;;;;;6.60;5.60;;;20.00;78.50;;;;;;10447217;28;20587;-25
2021/07/02 14:38:56;;;;;;;6.20;5.60;;;20.10;78.10;;;;;;10438082;28;20218;-25
2021/07/02 14:44:18;;;;;;;7.47;5.67;;;20.10;78.20;;;;;;10415384;28;20204;-24
2021/07/02 14:49:40;;;;;;;5.70;5.10;;;20.00;78.30;;;;;;10452854;28;20287;-25
2021/07/02 14:55:05;;;;;;;7.37;5.23;;;20.10;78.40;;;;;;10450143;28;20233;-24
2021/07/02 15:00:27;;;;;;;9.00;5.63;;;20.00;78.30;;;;;;10454253;28;20219;-25
2021/07/02 15:05:49;;;;;;;8.53;5.67;;;20.00;78.20;;;;;;10457541;28;20216;-26
2021/07/02 15:11:14;;;;;;;6.50;5.20;;;20.00;78.50;;;;;;10494145;28;20217;-24
2021/07/02 15:16:36;;;;;;;7.07;5.40;;;20.00;78.80;;;;;;10454997;28;20594;-25
2021/07/02 15:21:58;;;;;;;7.97;5.67;;;20.00;78.50;;;;;;10453803;28;20193;-23
2021/07/02 15:27:21;;;;;;;9.20;6.67;;;20.10;78.50;;;;;;10461491;28;20293;-25
2021/07/02 15:32:44;;;;;;;10.40;7.47;;;20.10;78.20;;;;;;10475811;28;20390;-24
2021/07/02 15:38:06;;;;;;;9.70;7.43;;;20.10;78.00;;;;;;10494999;28;20216;-24
2021/07/02 15:43:30;;;;;;;12.80;8.10;;;20.10;77.80;;;;;;10454319;28;20194;-24
2021/07/02 15:48:52;;;;;;;11.43;7.47;;;20.10;77.80;;;;;;10452079;28;20232;-24
2021/07/02 15:54:14;;;;;;;10.60;7.07;;;20.10;77.80;;;;;;10453754;28;20208;-25
2021/07/02 15:59:37;;;;;;;10.60;7.37;;;20.10;77.90;;;;;;10452661;28;20224;-25
2021/07/02 16:04:59;;;;;;;10.80;7.67;;;20.10;78.00;;;;;;10489234;28;20216;-25
2021/07/02 16:10:22;;;;;;;8.53;6.77;;;20.10;78.10;;;;;;10470601;28;20592;-25
2021/07/02 16:15:45;;;;;;;11.07;7.40;;;20.10;77.70;;;;;;10460719;28;20219;-25
2021/07/02 16:21:07;;;;;;;9.53;7.33;;;20.10;78.10;;;;;;10465498;28;20197;-26
2021/07/02 16:26:29;;;;;;;10.30;7.10;;;20.10;78.00;;;;;;10476289;28;20243;-26
2021/07/02 16:31:53;;;;;;;27.87;15.23;;;20.10;77.90;;;;;;10461340;28;20251;-24
2021/07/02 16:37:15;;;;;;;66.53;33.37;;;20.10;77.70;;;;;;10473156;28;20223;-24
2021/07/02 16:42:37;;;;;;;69.93;35.70;;;20.10;77.80;;;;;;10451140;28;20194;-25
2021/07/02 16:48:01;;;;;;;57.87;30.90;;;20.10;77.30;;;;;;10473025;28;20216;-25
2021/07/02 16:53:24;;;;;;;56.27;28.07;;;20.10;77.40;;;;;;10491025;28;20192;-25
2021/07/02 16:58:46;;;;;;;48.30;25.27;;;20.10;77.70;;;;;;10490841;28;20221;-25
2021/07/02 17:04:09;;;;;;;36.07;20.40;;;20.10;77.90;;;;;;10491513;28;20983;-25
2021/07/02 17:09:32;;;;;;;38.17;18.90;;;20.10;78.30;;;;;;10489986;28;20223;-25
2021/07/02 17:14:54;;;;;;;32.67;17.03;;;20.10;78.30;;;;;;10449162;28;20201;-26
2021/07/02 17:20:17;;;;;;;28.63;16.67;;;20.10;78.20;;;;;;10454586;28;20220;-25
2021/07/02 17:25:40;;;;;;;25.60;14.30;;;20.10;78.50;;;;;;10460290;28;20220;-23
2021/07/02 17:31:02;;;;;;;22.53;12.77;;;20.10;78.20;;;;;;10484498;28;20219;-24
2021/07/02 17:36:26;;;;;;;20.97;12.10;;;20.10;78.20;;;;;;10500036;28;20216;-25
2021/07/02 17:41:48;;;;;;;18.43;11.43;;;20.10;78.10;;;;;;10457461;28;20189;-23
2021/07/02 17:47:10;;;;;;;16.50;10.60;;;20.10;78.50;;;;;;10458864;28;20506;-24
2021/07/02 17:52:33;;;;;;;17.40;10.73;;;20.10;78.40;;;;;;10492817;28;20196;-24
2021/07/02 17:57:55;;;;;;;14.93;9.80;;;20.20;78.70;;;;;;10465465;28;20726;-24
2021/07/02 18:03:17;;;;;;;18.87;10.07;;;20.20;78.40;;;;;;10458074;28;20193;-23
2021/07/02 18:08:41;;;;;;;11.40;8.67;;;20.20;78.00;;;;;;10484195;28;20213;-26
2021/07/02 18:14:04;;;;;;;16.03;9.07;;;20.20;77.70;;;;;;10488662;28;20204;-24
2021/07/02 18:19:27;;;;;;;16.47;8.87;;;20.30;77.90;;;;;;10448816;22;20234;-30
2021/07/02 18:24:51;;;;;;;12.43;8.80;;;20.20;77.40;;;;;;10412195;28;20661;-27
2021/07/02 18:30:14;;;;;;;12.23;8.50;;;20.20;76.80;;;;;;10413866;28;20214;-28
2021/07/02 18:35:36;;;;;;;10.20;7.80;;;20.30;77.90;;;;;;10413183;28;20194;-29
2021/07/02 18:41:00;;;;;;;8.93;7.87;;;20.20;78.40;;;;;;10415291;28;20307;-27
2021/07/02 18:46:22;;;;;;;8.73;7.73;;;20.20;77.50;;;;;;10414348;28;20201;-29
2021/07/02 18:51:44;;;;;;;9.77;8.10;;;20.20;77.80;;;;;;10414978;28;20218;-29
2021/07/02 18:57:08;;;;;;;9.97;7.90;;;20.10;78.10;;;;;;10413706;28;20635;-29
2021/07/02 19:02:30;;;;;;;9.83;7.53;;;20.10;77.90;;;;;;10415454;28;20197;-27
2021/07/02 19:07:53;;;;;;;10.43;7.63;;;20.10;77.80;;;;;;10415124;28;20218;-27
2021/07/02 19:13:17;;;;;;;8.50;7.40;;;20.20;77.90;;;;;;10413094;28;20661;-29
2021/07/02 19:18:39;;;;;;;12.63;8.03;;;20.20;77.60;;;;;;10413208;28;20233;-28
2021/07/02 19:24:02;;;;;;;9.33;7.97;;;20.10;77.20;;;;;;10413376;28;20212;-27
2021/07/02 19:29:26;;;;;;;19.43;8.13;;;20.20;77.40;;;;;;10412903;28;20218;-29
2021/07/02 19:34:48;;;;;;;16.50;11.53;;;20.10;77.10;;;;;;10412006;28;20202;-26
2021/07/02 19:40:12;;;;;;;13.73;9.10;;;20.10;76.90;;;;;;10410332;28;20214;-28
2021/07/02 19:45:36;;;;;;;9.10;7.23;;;20.10;76.70;;;;;;10401406;28;20284;-28
2021/07/02 19:50:58;;;;;;;10.20;7.00;;;20.10;77.90;;;;;;10411294;28;20708;-29
2021/07/02 19:56:21;;;;;;;8.30;6.40;;;20.10;79.00;;;;;;10413327;28;20700;-30
2021/07/02 20:01:44;;;;;;;7.53;6.73;;;20.10;79.20;;;;;;10412077;28;20186;-30
2021/07/02 20:07:07;;;;;;;8.63;6.33;;;20.10;79.20;;;;;;10409494;28;20232;-26
2021/07/02 20:12:29;;;;;;;8.83;6.03;;;20.10;79.40;;;;;;10407742;28;20222;-29
2021/07/02 20:17:53;;;;;;;7.07;6.37;;;20.10;79.50;;;;;;10407913;28;20332;-27
2021/07/02 20:23:16;;;;;;;7.37;6.00;;;20.10;79.50;;;;;;10403905;28;20198;-30
2021/07/02 20:28:39;;;;;;;6.10;5.43;;;20.00;79.50;;;;;;10408346;28;20299;-26
2021/07/02 20:34:04;;;;;;;7.00;6.17;;;20.10;79.50;;;;;;10408140;28;20212;-28
2021/07/02 20:39:26;;;;;;;6.50;5.90;;;20.10;79.70;;;;;;10407070;28;20206;-27
2021/07/02 20:44:49;;;;;;;6.73;5.97;;;20.00;79.70;;;;;;10408917;28;20201;-27
2021/07/02 20:50:14;;;;;;;7.83;5.83;;;20.00;79.50;;;;;;10407438;28;20224;-31
2021/07/02 20:55:36;;;;;;;7.23;5.70;;;20.00;79.80;;;;;;10404769;28;20206;-28
2021/07/02 21:00:58;;;;;;;6.43;5.83;;;20.00;79.70;;;;;;10406534;28;20205;-29
2021/07/02 21:06:21;;;;;;;6.53;5.93;;;20.00;79.60;;;;;;10409430;28;20193;-26
2021/07/02 21:11:43;;;;;;;5.77;5.17;;;20.00;79.50;;;;;;10407258;28;20592;-28
2021/07/02 21:17:06;;;;;;;5.70;5.20;;;20.00;79.70;;;;;;10407288;28;20213;-28
2021/07/02 21:22:30;;;;;;;6.57;5.80;;;20.00;79.50;;;;;;10405923;28;20196;-29
2021/07/02 21:27:52;;;;;;;5.70;5.20;;;20.00;79.50;;;;;;10408764;28;20217;-28
2021/07/02 21:33:14;;;;;;;6.43;5.83;;;20.00;79.50;;;;;;10407692;28;20197;-30
2021/07/02 21:38:38;;;;;;;6.60;5.90;;;20.00;79.70;;;;;;10409188;28;20576;-28
2021/07/02 21:44:00;;;;;;;5.93;5.33;;;20.00;79.50;;;;;;10408700;28;20534;-27
2021/07/02 21:49:22;;;;;;;6.03;5.37;;;20.00;79.60;;;;;;10408634;28;20214;-28
2021/07/02 21:54:46;;;;;;;6.27;5.67;;;20.00;79.50;;;;;;10406864;28;20328;-27
2021/07/02 22:00:11;;;;;;;6.27;5.67;;;20.00;79.50;;;;;;10406896;28;20284;-27
2021/07/02 22:05:34;;;;;;;6.07;5.47;;;20.00;79.60;;;;;;10407839;28;20208;-29
2021/07/02 22:10:58;;;;;;;5.67;5.10;;;20.00;79.40;;;;;;10415162;28;20229;-29
2021/07/02 22:16:20;;;;;;;5.80;5.27;;;20.00;79.30;;;;;;10415605;28;20592;-27
2021/07/02 22:21:42;;;;;;;6.13;5.53;;;20.00;79.40;;;;;;10416106;28;20210;-27
2021/07/02 22:27:06;;;;;;;5.47;4.97;;;20.00;79.40;;;;;;10407432;28;20688;-28
2021/07/02 22:32:28;;;;;;;6.30;5.50;;;20.00;79.30;;;;;;10396022;28;20254;-27
2021/07/02 22:37:51;;;;;;;5.30;4.80;;;20.00;79.40;;;;;;10377409;28;20214;-27
2021/07/02 22:43:14;;;;;;;6.03;5.43;;;20.00;79.40;;;;;;10375032;28;20198;-27
2021/07/02 22:48:36;;;;;;;5.57;5.03;;;19.90;79.30;;;;;;10375512;28;20215;-27
2021/07/02 22:53:58;;;;;;;5.53;5.03;;;20.00;79.40;;;;;;10374895;28;20225;-27
2021/07/02 22:59:21;;;;;;;7.33;5.47;;;20.00;79.20;;;;;;10380363;28;20226;-28
2021/07/02 23:04:44;;;;;;;6.10;5.50;;;20.00;79.20;;;;;;10377809;28;20199;-29
2021/07/02 23:10:07;;;;;;;4.97;4.57;;;20.00;79.20;;;;;;10417461;28;20204;-29
2021/07/02 23:15:31;;;;;;;5.80;5.30;;;20.00;79.20;;;;;;10390742;28;20195;-27
2021/07/02 23:20:53;;;;;;;6.67;5.23;;;20.00;79.40;;;;;;10439262;28;20220;-28
2021/07/02 23:26:15;;;;;;;5.40;4.90;;;19.90;79.20;;;;;;10455533;28;20207;-29
2021/07/02 23:31:39;;;;;;;5.57;5.03;;;19.90;79.00;;;;;;10454475;28;20726;-30
2021/07/02 23:37:01;;;;;;;5.93;5.23;;;19.90;79.00;;;;;;10454346;28;20205;-29
2021/07/02 23:42:23;;;;;;;5.60;5.10;;;19.90;78.90;;;;;;10453554;28;20672;-28
2021/07/02 23:47:46;;;;;;;5.73;5.23;;;19.90;78.90;;;;;;10454687;28;20228;-28
2021/07/02 23:53:08;;;;;;;5.40;4.90;;;19.90;78.90;;;;;;10454177;28;20315;-30
2021/07/02 23:58:30;;;;;;;5.37;4.87;;;19.90;79.00;;;;;;10448837;28;20221;-31
